createdAt,value
2019-04-05T00:00:34.775Z,99.99
2019-04-05T00:01:34.762Z,99.99
2019-04-05T00:02:34.752Z,99.99
2019-04-05T00:03:34.737Z,99.99
2019-04-05T00:04:34.745Z,99.99
2019-04-05T00:05:34.714Z,99.99
2019-04-05T00:06:34.704Z,99.99
2019-04-05T00:07:34.692Z,99.99
2019-04-05T00:08:34.432Z,99.99
2019-04-05T00:09:34.665Z,99.99
2019-04-05T00:10:34.654Z,99.99
2019-04-05T00:11:34.640Z,99.99
2019-04-05T00:12:34.631Z,99.99
2019-04-05T00:13:34.617Z,99.99
2019-04-05T00:14:34.608Z,99.99
2019-04-05T00:15:34.594Z,99.99
2019-04-05T00:16:34.585Z,99.99
2019-04-05T00:17:34.577Z,99.99
2019-04-05T00:18:34.558Z,99.99
2019-04-05T00:19:34.543Z,99.99
2019-04-05T00:20:34.288Z,99.99
2019-04-05T00:21:34.524Z,99.99
2019-04-05T00:22:34.510Z,99.99
2019-04-05T00:23:34.496Z,99.99
2019-04-05T00:24:34.561Z,99.99
2019-04-05T00:25:34.474Z,99.99
2019-04-05T00:26:34.461Z,99.99
2019-04-05T00:27:34.479Z,99.99
2019-04-05T00:28:34.189Z,99.99
2019-04-05T00:29:34.425Z,99.99
2019-04-05T00:30:34.412Z,99.99
2019-04-05T00:31:34.408Z,99.99
2019-04-05T00:32:34.390Z,99.99
2019-04-05T00:33:34.388Z,99.99
2019-04-05T00:34:34.366Z,99.99
2019-04-05T00:35:34.358Z,99.99
2019-04-05T00:36:34.339Z,99.99
2019-04-05T00:37:34.328Z,99.99
2019-04-05T00:38:34.319Z,99.99
2019-04-05T00:39:34.308Z,99.99
2019-04-05T00:40:34.301Z,99.99
2019-04-05T00:41:35.575Z,99.99
2019-04-05T00:42:34.268Z,99.99
2019-04-05T00:43:34.257Z,99.99
2019-04-05T00:44:34.246Z,99.99
2019-04-05T00:45:34.241Z,99.99
2019-04-05T00:46:33.976Z,99.99
2019-04-05T00:47:34.208Z,99.99
2019-04-05T00:48:34.198Z,99.99
2019-04-05T00:49:34.186Z,99.99
2019-04-05T00:50:34.214Z,99.99
2019-04-05T00:51:34.161Z,99.99
2019-04-05T00:52:34.148Z,99.99
2019-04-05T00:53:34.134Z,99.99
2019-04-05T00:54:33.879Z,99.99
2019-04-05T00:55:34.114Z,99.99
2019-04-05T00:56:34.113Z,99.99
2019-04-05T00:57:34.087Z,99.99
2019-04-05T00:58:34.075Z,99.99
2019-04-05T00:59:34.064Z,99.99
2019-04-05T01:00:34.061Z,99.99
2019-04-05T01:01:34.040Z,99.99
2019-04-05T01:02:34.026Z,99.99
2019-04-05T01:03:34.014Z,99.99
2019-04-05T01:04:34.003Z,99.99
2019-04-05T01:05:33.988Z,99.99
2019-04-05T01:06:33.977Z,99.99
2019-04-05T01:07:33.967Z,99.99
2019-04-05T01:08:33.952Z,99.99
2019-04-05T01:09:33.941Z,99.99
2019-04-05T01:10:33.936Z,99.99
2019-04-05T01:11:33.923Z,99.99
2019-04-05T01:12:34.374Z,99.99
2019-04-05T01:13:33.893Z,99.99
2019-04-05T01:14:33.881Z,99.99
2019-04-05T01:15:43.328Z,99.99
2019-04-05T01:16:33.861Z,99.99
2019-04-05T01:17:33.851Z,99.99
2019-04-05T01:18:33.832Z,99.99
2019-04-05T01:19:33.579Z,99.99
2019-04-05T01:20:33.811Z,99.99
2019-04-05T01:21:33.795Z,99.99
2019-04-05T01:22:33.783Z,99.99
2019-04-05T01:23:33.774Z,99.99
2019-04-05T01:24:33.760Z,99.99
2019-04-05T01:25:33.502Z,99.99
2019-04-05T01:26:33.738Z,99.99
2019-04-05T01:27:33.721Z,99.99
2019-04-05T01:28:33.717Z,99.99
2019-04-05T01:29:33.699Z,99.99
2019-04-05T01:30:33.721Z,99.99
2019-04-05T01:31:33.472Z,99.99
2019-04-05T01:32:33.664Z,99.99
2019-04-05T01:33:33.648Z,99.99
2019-04-05T01:34:33.637Z,99.99
2019-04-05T01:35:33.624Z,99.99
2019-04-05T01:36:33.617Z,99.99
2019-04-05T01:37:33.600Z,99.99
2019-04-05T01:38:33.341Z,99.99
2019-04-05T01:39:33.577Z,99.99
2019-04-05T01:40:33.570Z,99.99
2019-04-05T01:41:33.551Z,99.99
2019-04-05T01:42:33.294Z,99.99
2019-04-05T01:43:33.525Z,99.88
2019-04-05T01:44:33.516Z,98.26
2019-04-05T01:45:33.501Z,97.12
2019-04-05T01:46:33.490Z,95.7
2019-04-05T01:47:33.478Z,94.51
2019-04-05T01:48:33.465Z,94.13
2019-04-05T01:49:33.451Z,93.56
2019-04-05T01:50:33.229Z,93.08
2019-04-05T01:51:33.431Z,92.42
2019-04-05T01:52:33.419Z,91.56
2019-04-05T01:53:33.156Z,91.09
2019-04-05T01:54:33.396Z,90.61
2019-04-05T01:55:33.382Z,90.42
2019-04-05T01:56:33.365Z,90.14
2019-04-05T01:57:33.357Z,90.23
2019-04-05T01:58:33.344Z,88.9
2019-04-05T01:59:33.328Z,89.23
2019-04-05T02:00:33.319Z,88.53
2019-04-05T02:01:33.304Z,87.67
2019-04-05T02:02:33.045Z,86.82
2019-04-05T02:03:33.284Z,85.86
2019-04-05T02:04:33.019Z,85.01
2019-04-05T02:05:33.252Z,84.72
2019-04-05T02:06:32.994Z,83.87
2019-04-05T02:07:33.228Z,83.78
2019-04-05T02:08:33.216Z,84.06
2019-04-05T02:09:33.200Z,83.78
2019-04-05T02:10:33.192Z,84.06
2019-04-05T02:11:33.177Z,83.68
2019-04-05T02:12:33.173Z,83.01
2019-04-05T02:13:33.150Z,82.26
2019-04-05T02:14:33.139Z,82.16
2019-04-05T02:15:33.274Z,81.68
2019-04-05T02:16:33.113Z,81.21
2019-04-05T02:17:35.748Z,80.74
2019-04-05T02:18:32.845Z,80.26
2019-04-05T02:19:33.073Z,80.35
2019-04-05T02:20:33.059Z,80.07
2019-04-05T02:21:33.047Z,80.83
2019-04-05T02:22:33.042Z,81.59
2019-04-05T02:23:32.783Z,81.4
2019-04-05T02:24:33.014Z,81.68
2019-04-05T02:25:32.993Z,81.68
2019-04-05T02:26:32.994Z,81.21
2019-04-05T02:27:32.973Z,81.59
2019-04-05T02:28:32.957Z,81.49
2019-04-05T02:29:32.947Z,81.87
2019-04-05T02:30:32.941Z,81.87
2019-04-05T02:31:32.919Z,82.26
2019-04-05T02:32:32.963Z,82.73
2019-04-05T02:33:32.919Z,83.01
2019-04-05T02:34:32.886Z,83.01
2019-04-05T02:35:32.947Z,83.59
2019-04-05T02:36:32.871Z,83.59
2019-04-05T02:37:32.847Z,84.16
2019-04-05T02:38:32.832Z,84.82
2019-04-05T02:39:32.821Z,85.2
2019-04-05T02:40:32.601Z,85.77
2019-04-05T02:41:32.800Z,85.86
2019-04-05T02:42:32.795Z,85.86
2019-04-05T02:43:32.913Z,85.96
2019-04-05T02:44:32.839Z,85.81
2019-04-05T02:45:32.782Z,85.96
2019-04-05T02:46:32.731Z,86.19
2019-04-05T02:47:32.726Z,86.95
2019-04-05T02:48:32.816Z,87.34
2019-04-05T02:49:32.695Z,87.05
2019-04-05T02:50:32.677Z,87.24
2019-04-05T02:51:32.729Z,87.62
2019-04-05T02:52:32.653Z,86.95
2019-04-05T02:53:32.652Z,87.34
2019-04-05T02:54:32.639Z,87.05
2019-04-05T02:55:32.620Z,87.71
2019-04-05T02:56:32.635Z,86.86
2019-04-05T02:57:32.358Z,87.52
2019-04-05T02:58:32.585Z,87.34
2019-04-05T02:59:32.566Z,87.71
2019-04-05T03:00:32.568Z,88.57
2019-04-05T03:01:32.542Z,88.19
2019-04-05T03:02:32.529Z,88.09
2019-04-05T03:03:32.535Z,88.38
2019-04-05T03:04:32.506Z,88.19
2019-04-05T03:05:32.497Z,88.95
2019-04-05T03:06:32.481Z,89.33
2019-04-05T03:07:32.466Z,89.8
2019-04-05T03:08:32.456Z,89.9
2019-04-05T03:09:32.455Z,89.8
2019-04-05T03:10:32.429Z,90.28
2019-04-05T03:11:32.422Z,90.56
2019-04-05T03:12:32.420Z,90.66
2019-04-05T03:13:32.394Z,90.56
2019-04-05T03:14:32.380Z,90.47
2019-04-05T03:15:32.372Z,90.37
2019-04-05T03:16:43.136Z,90.66
2019-04-05T03:17:32.344Z,91.23
2019-04-05T03:18:32.338Z,91.52
2019-04-05T03:19:32.074Z,91.52
2019-04-05T03:20:32.312Z,91.42
2019-04-05T03:21:32.318Z,91.23
2019-04-05T03:22:32.292Z,90.52
2019-04-05T03:23:32.272Z,89.95
2019-04-05T03:24:32.263Z,88.62
2019-04-05T03:25:32.009Z,88.24
2019-04-05T03:26:32.281Z,87.57
2019-04-05T03:27:32.224Z,87.29
2019-04-05T03:28:32.205Z,87.19
2019-04-05T03:29:32.200Z,86.72
2019-04-05T03:30:32.369Z,86.72
2019-04-05T03:31:32.177Z,87.01
2019-04-05T03:32:32.367Z,87.43
2019-04-05T03:33:32.148Z,87.05
2019-04-05T03:34:32.138Z,86.76
2019-04-05T03:35:32.164Z,86.57
2019-04-05T03:36:32.170Z,86.95
2019-04-05T03:37:32.101Z,86.95
2019-04-05T03:38:32.088Z,87.34
2019-04-05T03:39:32.072Z,87.14
2019-04-05T03:40:32.139Z,86.76
2019-04-05T03:41:32.049Z,87.01
2019-04-05T03:42:32.046Z,86.72
2019-04-05T03:43:32.033Z,86.63
2019-04-05T03:44:32.023Z,86.43
2019-04-05T03:45:32.004Z,85.58
2019-04-05T03:46:31.989Z,85.58
2019-04-05T03:47:32.032Z,85.58
2019-04-05T03:48:31.959Z,85.01
2019-04-05T03:49:31.967Z,85.39
2019-04-05T03:50:31.932Z,84.72
2019-04-05T03:51:31.926Z,84.44
2019-04-05T03:52:31.913Z,84.06
2019-04-05T03:53:31.898Z,83.39
2019-04-05T03:54:31.888Z,83.01
2019-04-05T03:55:31.866Z,83.2
2019-04-05T03:56:31.856Z,83.2
2019-04-05T03:57:31.857Z,83.11
2019-04-05T03:58:31.834Z,83.68
2019-04-05T03:59:31.821Z,83.59
2019-04-05T04:00:31.561Z,83.78
2019-04-05T04:01:31.792Z,83.2
2019-04-05T04:02:31.786Z,83.39
2019-04-05T04:03:31.814Z,83.3
2019-04-05T04:04:31.759Z,82.26
2019-04-05T04:05:31.744Z,81.97
2019-04-05T04:06:31.747Z,81.87
2019-04-05T04:07:31.721Z,81.87
2019-04-05T04:08:31.707Z,82.45
2019-04-05T04:09:31.692Z,82.64
2019-04-05T04:10:31.683Z,82.07
2019-04-05T04:11:31.685Z,81.97
2019-04-05T04:12:31.671Z,81.49
2019-04-05T04:13:31.643Z,81.59
2019-04-05T04:14:31.634Z,81.21
2019-04-05T04:15:31.614Z,81.21
2019-04-05T04:16:31.599Z,81.3
2019-04-05T04:17:31.589Z,81.49
2019-04-05T04:18:31.582Z,81.59
2019-04-05T04:19:31.561Z,81.3
2019-04-05T04:20:31.557Z,81.78
2019-04-05T04:21:31.540Z,82.16
2019-04-05T04:22:31.533Z,82.45
2019-04-05T04:23:31.517Z,82.92
2019-04-05T04:24:31.502Z,83.39
2019-04-05T04:25:31.493Z,83.87
2019-04-05T04:26:31.497Z,83.39
2019-04-05T04:27:31.489Z,83.2
2019-04-05T04:28:31.457Z,82.92
2019-04-05T04:29:31.439Z,82.45
2019-04-05T04:30:31.423Z,82.07
2019-04-05T04:31:31.413Z,81.4
2019-04-05T04:32:31.408Z,80.26
2019-04-05T04:33:31.401Z,79.31
2019-04-05T04:34:31.383Z,78.83
2019-04-05T04:35:31.113Z,77.79
2019-04-05T04:36:31.348Z,77.12
2019-04-05T04:37:31.346Z,76.18
2019-04-05T04:38:31.332Z,76.46
2019-04-05T04:39:31.306Z,75.7
2019-04-05T04:40:31.060Z,74.56
2019-04-05T04:41:34.451Z,74.47
2019-04-05T04:42:31.273Z,74.18
2019-04-05T04:43:31.261Z,73.61
2019-04-05T04:44:31.246Z,72.95
2019-04-05T04:45:31.233Z,72.56
2019-04-05T04:46:31.225Z,72.56
2019-04-05T04:47:31.216Z,72.28
2019-04-05T04:48:31.213Z,72.28
2019-04-05T04:49:31.232Z,72.28
2019-04-05T04:50:31.167Z,73.23
2019-04-05T04:51:31.153Z,73.61
2019-04-05T04:52:33.859Z,74.08
2019-04-05T04:53:31.130Z,74.47
2019-04-05T04:54:31.117Z,74.27
2019-04-05T04:55:31.110Z,73.14
2019-04-05T04:56:31.093Z,72.85
2019-04-05T04:57:31.077Z,72.28
2019-04-05T04:58:31.108Z,71.9
2019-04-05T04:59:31.052Z,71.23
2019-04-05T05:00:31.039Z,70.48
2019-04-05T05:01:31.025Z,70
2019-04-05T05:02:31.016Z,69.34
2019-04-05T05:03:31.003Z,69.62
2019-04-05T05:04:30.990Z,70.1
2019-04-05T05:05:30.732Z,70.29
2019-04-05T05:06:30.961Z,70.48
2019-04-05T05:07:30.948Z,70.38
2019-04-05T05:08:30.938Z,70
2019-04-05T05:09:30.927Z,70.1
2019-04-05T05:10:30.663Z,69.15
2019-04-05T05:11:30.900Z,68.39
2019-04-05T05:12:30.884Z,68.96
2019-04-05T05:13:30.869Z,68.77
2019-04-05T05:14:30.858Z,68.48
2019-04-05T05:15:30.848Z,68.86
2019-04-05T05:16:30.890Z,69.15
2019-04-05T05:17:40.599Z,69.05
2019-04-05T05:18:30.805Z,68.96
2019-04-05T05:19:30.792Z,68.29
2019-04-05T05:20:30.781Z,68.1
2019-04-05T05:21:30.770Z,67.72
2019-04-05T05:22:30.757Z,67.25
2019-04-05T05:23:30.741Z,66.58
2019-04-05T05:24:30.936Z,65.82
2019-04-05T05:25:30.714Z,65.73
2019-04-05T05:26:30.704Z,65.06
2019-04-05T05:27:30.688Z,65.16
2019-04-05T05:28:32.760Z,65.06
2019-04-05T05:29:30.663Z,64.59
2019-04-05T05:30:30.659Z,64.87
2019-04-05T05:31:30.653Z,64.02
2019-04-05T05:32:30.626Z,63.35
2019-04-05T05:33:30.621Z,62.78
2019-04-05T05:34:30.600Z,63.07
2019-04-05T05:35:30.592Z,62.59
2019-04-05T05:36:30.329Z,62.88
2019-04-05T05:37:32.765Z,63.26
2019-04-05T05:38:30.698Z,63.45
2019-04-05T05:39:30.544Z,62.97
2019-04-05T05:40:37.532Z,62.5
2019-04-05T05:41:30.515Z,62.88
2019-04-05T05:42:30.495Z,62.31
2019-04-05T05:43:30.488Z,61.74
2019-04-05T05:44:30.469Z,61.26
2019-04-05T05:45:30.459Z,61.17
2019-04-05T05:46:30.448Z,61.17
2019-04-05T05:47:30.429Z,60.98
2019-04-05T05:48:33.305Z,61.26
2019-04-05T05:49:30.408Z,61.45
2019-04-05T05:50:30.389Z,61.07
2019-04-05T05:51:30.380Z,61.17
2019-04-05T05:52:30.364Z,61.26
2019-04-05T05:53:30.355Z,62.12
2019-04-05T05:54:30.344Z,62.97
2019-04-05T05:55:32.514Z,62.97
2019-04-05T05:56:30.311Z,64.11
2019-04-05T05:57:30.305Z,65.44
2019-04-05T05:58:30.310Z,66.39
2019-04-05T05:59:33.154Z,66.87
2019-04-05T06:00:32.751Z,68.48
2019-04-05T06:01:30.247Z,68.77
2019-04-05T06:02:30.235Z,68.48
2019-04-05T06:03:30.221Z,69.34
2019-04-05T06:04:30.209Z,70.48
2019-04-05T06:05:29.954Z,71.04
2019-04-05T06:06:30.191Z,72.28
2019-04-05T06:07:30.172Z,73.61
2019-04-05T06:08:31.779Z,73.9
2019-04-05T06:09:30.147Z,74.51
2019-04-05T06:10:30.132Z,74.27
2019-04-05T06:11:30.128Z,74.56
2019-04-05T06:12:30.106Z,74.08
2019-04-05T06:13:30.094Z,73.74
2019-04-05T06:14:30.083Z,73.9
2019-04-05T06:15:30.067Z,74.66
2019-04-05T06:16:30.062Z,75.04
2019-04-05T06:17:30.048Z,75.79
2019-04-05T06:18:30.030Z,75.13
2019-04-05T06:19:30.020Z,75.32
2019-04-05T06:20:30.006Z,76.65
2019-04-05T06:21:30.011Z,77.51
2019-04-05T06:22:29.980Z,76.84
2019-04-05T06:23:36.001Z,76.84
2019-04-05T06:24:29.953Z,76.27
2019-04-05T06:25:29.953Z,75.79
2019-04-05T06:26:29.952Z,75.13
2019-04-05T06:27:29.669Z,74.56
2019-04-05T06:28:30.069Z,75.23
2019-04-05T06:29:29.646Z,75.7
2019-04-05T06:30:31.338Z,75.6
2019-04-05T06:31:29.867Z,76.03
2019-04-05T06:32:29.854Z,75.55
2019-04-05T06:33:35.782Z,75.6
2019-04-05T06:34:29.827Z,77.17
2019-04-05T06:35:29.816Z,77.73
2019-04-05T06:36:29.806Z,77.17
2019-04-05T06:37:29.792Z,77.07
2019-04-05T06:38:29.776Z,78.02
2019-04-05T06:39:29.763Z,78.59
2019-04-05T06:40:42.556Z,80.02
2019-04-05T06:41:29.498Z,79.83
2019-04-05T06:42:29.729Z,79.73
2019-04-05T06:43:29.714Z,79.35
2019-04-05T06:44:30.599Z,79.35
2019-04-05T06:45:29.689Z,79.25
2019-04-05T06:46:29.678Z,79.92
2019-04-05T06:47:29.667Z,79.73
2019-04-05T06:48:31.834Z,79.63
2019-04-05T06:49:29.642Z,80.87
2019-04-05T06:50:29.380Z,81.82
2019-04-05T06:51:29.389Z,81.06
2019-04-05T06:52:29.599Z,80.4
2019-04-05T06:53:29.590Z,80.87
2019-04-05T06:54:29.575Z,79.92
2019-04-05T06:55:29.564Z,79.63
2019-04-05T06:56:29.555Z,78.97
2019-04-05T06:57:29.545Z,79.25
2019-04-05T06:58:31.603Z,80.02
2019-04-05T06:59:29.556Z,79.63
2019-04-05T07:00:29.544Z,79.25
2019-04-05T07:01:29.491Z,78.5
2019-04-05T07:02:29.480Z,78.21
2019-04-05T07:03:29.471Z,77.64
2019-04-05T07:04:30.973Z,77.26
2019-04-05T07:05:29.195Z,76.59
2019-04-05T07:06:29.426Z,76.31
2019-04-05T07:07:29.412Z,77.26
2019-04-05T07:08:29.402Z,79.16
2019-04-05T07:09:29.388Z,79.83
2019-04-05T07:10:29.376Z,79.44
2019-04-05T07:11:29.362Z,79.06
2019-04-05T07:12:29.114Z,78.4
2019-04-05T07:13:30.060Z,77.55
2019-04-05T07:14:29.358Z,78.11
2019-04-05T07:15:29.318Z,79.35
2019-04-05T07:16:29.302Z,80.02
2019-04-05T07:17:29.292Z,81.82
2019-04-05T07:18:37.905Z,82.01
2019-04-05T07:19:29.413Z,83.53
2019-04-05T07:20:29.253Z,84.29
2019-04-05T07:21:29.241Z,85.34
2019-04-05T07:22:41.342Z,86.57
2019-04-05T07:23:29.213Z,86.76
2019-04-05T07:24:29.221Z,86.86
2019-04-05T07:25:31.814Z,88.09
2019-04-05T07:26:29.176Z,88.28
2019-04-05T07:27:29.175Z,87.05
2019-04-05T07:28:29.168Z,86.86
2019-04-05T07:29:29.141Z,86.95
2019-04-05T07:30:32.578Z,87.52
2019-04-05T07:31:28.872Z,89.9
2019-04-05T07:32:31.210Z,89.9
2019-04-05T07:33:28.848Z,89.04
2019-04-05T07:34:28.832Z,87.43
2019-04-05T07:35:35.975Z,86
2019-04-05T07:36:29.057Z,87.34
2019-04-05T07:37:29.043Z,86.95
2019-04-05T07:38:29.029Z,86.47
2019-04-05T07:39:29.017Z,87.43
2019-04-05T07:40:29.005Z,88.8
2019-04-05T07:41:31.663Z,90.04
2019-04-05T07:42:28.981Z,89.66
2019-04-05T07:43:28.971Z,90.42
2019-04-05T07:44:28.954Z,92.99
2019-04-05T07:45:28.946Z,94.79
2019-04-05T07:46:28.930Z,95.27
2019-04-05T07:47:28.920Z,94.32
2019-04-05T07:48:28.908Z,94.32
2019-04-05T07:49:28.898Z,94.89
2019-04-05T07:50:28.888Z,95.17
2019-04-05T07:51:28.871Z,94.89
2019-04-05T07:52:28.860Z,95.75
2019-04-05T07:53:28.849Z,96.41
2019-04-05T07:54:28.842Z,95.94
2019-04-05T07:55:28.831Z,96.98
2019-04-05T07:56:28.814Z,96.41
2019-04-05T07:57:28.802Z,95.84
2019-04-05T07:58:28.787Z,95.36
2019-04-05T07:59:28.530Z,95.94
2019-04-05T08:00:28.765Z,95.84
2019-04-05T08:01:28.507Z,98.5
2019-04-05T08:02:28.738Z,99.84
2019-04-05T08:03:28.726Z,99.99
2019-04-05T08:04:28.717Z,99.99
2019-04-05T08:05:28.706Z,99.99
2019-04-05T08:06:28.698Z,98.69
2019-04-05T08:07:28.685Z,97.17
2019-04-05T08:08:28.685Z,97.36
2019-04-05T08:09:28.421Z,98.31
2019-04-05T08:10:28.646Z,97.36
2019-04-05T08:11:28.644Z,95.17
2019-04-05T08:12:28.624Z,94.32
2019-04-05T08:13:28.609Z,93.27
2019-04-05T08:14:28.362Z,93.08
2019-04-05T08:15:28.590Z,92.61
2019-04-05T08:16:28.332Z,92.51
2019-04-05T08:17:28.569Z,92.32
2019-04-05T08:18:28.552Z,93.46
2019-04-05T08:19:28.548Z,93.37
2019-04-05T08:20:28.532Z,93.08
2019-04-05T08:21:28.517Z,94.7
2019-04-05T08:22:28.505Z,96.69
2019-04-05T08:23:28.496Z,97.08
2019-04-05T08:24:28.483Z,95.94
2019-04-05T08:25:28.466Z,94.79
2019-04-05T08:26:28.469Z,95.17
2019-04-05T08:27:28.442Z,94.6
2019-04-05T08:28:29.743Z,94.79
2019-04-05T08:29:28.419Z,97.74
2019-04-05T08:30:28.411Z,99.99
2019-04-05T08:31:28.394Z,99.74
2019-04-05T08:32:28.384Z,98.69
2019-04-05T08:33:28.371Z,98.03
2019-04-05T08:34:28.365Z,97.36
2019-04-05T08:35:28.348Z,97.27
2019-04-05T08:36:28.336Z,97.45
2019-04-05T08:37:28.325Z,96.6
2019-04-05T08:38:28.072Z,96.89
2019-04-05T08:39:28.308Z,97.36
2019-04-05T08:40:28.288Z,96.31
2019-04-05T08:41:28.277Z,97.17
2019-04-05T08:42:28.266Z,98.22
2019-04-05T08:43:28.262Z,98.6
2019-04-05T08:44:28.246Z,98.31
2019-04-05T08:45:28.236Z,97.93
2019-04-05T08:46:28.216Z,98.97
2019-04-05T08:47:28.206Z,99.99
2019-04-05T08:48:27.948Z,99.99
2019-04-05T08:49:28.180Z,99.99
2019-04-05T08:50:27.926Z,99.99
2019-04-05T08:51:28.156Z,99.99
2019-04-05T08:52:29.525Z,99.99
2019-04-05T08:53:28.138Z,99.99
2019-04-05T08:54:36.821Z,99.99
2019-04-05T08:55:28.114Z,99.99
2019-04-05T08:56:28.103Z,99.99
2019-04-05T08:57:28.092Z,99.99
2019-04-05T08:58:35.830Z,99.99
2019-04-05T08:59:28.068Z,99.99
2019-04-05T09:00:28.054Z,99.99
2019-04-05T09:01:28.046Z,99.99
2019-04-05T09:02:28.044Z,99.99
2019-04-05T09:03:28.019Z,99.99
2019-04-05T09:04:27.760Z,99.99
2019-04-05T09:05:28.019Z,99.99
2019-04-05T09:06:28.001Z,99.99
2019-04-05T09:07:27.978Z,99.99
2019-04-05T09:08:27.960Z,99.99
2019-04-05T09:09:27.982Z,99.99
2019-04-05T09:10:27.936Z,99.99
2019-04-05T09:11:27.934Z,99.99
2019-04-05T09:12:27.671Z,99.99
2019-04-05T09:13:27.904Z,99.99
2019-04-05T09:14:27.895Z,99.99
2019-04-05T09:15:27.884Z,99.99
2019-04-05T09:16:27.867Z,99.99
2019-04-05T09:17:27.864Z,99.99
2019-04-05T09:18:27.844Z,99.99
2019-04-05T09:19:27.851Z,99.99
2019-04-05T09:20:27.823Z,99.99
2019-04-05T09:21:27.811Z,99.99
2019-04-05T09:22:27.553Z,99.99
2019-04-05T09:23:27.790Z,99.99
2019-04-05T09:24:27.776Z,99.99
2019-04-05T09:25:27.520Z,99.99
2019-04-05T09:26:27.752Z,99.99
2019-04-05T09:27:27.745Z,99.99
2019-04-05T09:28:27.755Z,99.99
2019-04-05T09:29:27.740Z,99.99
2019-04-05T09:30:27.708Z,99.99
2019-04-05T09:31:27.700Z,99.99
2019-04-05T09:32:27.686Z,99.99
2019-04-05T09:33:27.675Z,99.99
2019-04-05T09:34:27.668Z,99.99
2019-04-05T09:35:27.653Z,99.99
2019-04-05T09:36:27.655Z,99.99
2019-04-05T09:37:27.629Z,99.99
2019-04-05T09:38:27.619Z,99.99
2019-04-05T09:39:27.613Z,99.99
2019-04-05T09:40:27.604Z,99.99
2019-04-05T09:41:27.588Z,99.99
2019-04-05T09:42:27.576Z,99.99
2019-04-05T09:43:27.326Z,99.99
2019-04-05T09:44:27.563Z,99.99
2019-04-05T09:45:27.548Z,99.99
2019-04-05T09:46:27.533Z,99.99
2019-04-05T09:47:27.527Z,99.99
2019-04-05T09:48:27.514Z,99.99
2019-04-05T09:49:39.092Z,99.99
2019-04-05T09:50:27.247Z,99.99
2019-04-05T09:51:27.482Z,99.99
2019-04-05T09:52:27.474Z,99.99
2019-04-05T09:53:27.533Z,99.99
2019-04-05T09:54:27.451Z,99.99
2019-04-05T09:55:27.441Z,99.99
2019-04-05T09:56:27.431Z,99.99
2019-04-05T09:57:27.426Z,99.99
2019-04-05T09:58:27.413Z,99.99
2019-04-05T09:59:27.405Z,99.99
2019-04-05T10:00:27.401Z,99.99
2019-04-05T10:01:27.382Z,99.99
2019-04-05T10:02:27.375Z,99.99
2019-04-05T10:03:27.363Z,99.99
2019-04-05T10:04:27.362Z,99.99
2019-04-05T10:05:27.105Z,99.99
2019-04-05T10:06:27.336Z,99.99
2019-04-05T10:07:27.327Z,99.99
2019-04-05T10:08:27.329Z,99.99
2019-04-05T10:09:27.307Z,99.99
2019-04-05T10:10:27.300Z,99.99
2019-04-05T10:11:27.041Z,99.99
2019-04-05T10:12:27.281Z,99.99
2019-04-05T10:13:27.271Z,99.99
2019-04-05T10:14:27.264Z,99.99
2019-04-05T10:15:27.258Z,99.99
2019-04-05T10:16:27.243Z,99.99
2019-04-05T10:17:27.235Z,99.99
2019-04-05T10:18:27.225Z,99.99
2019-04-05T10:19:27.213Z,99.99
2019-04-05T10:20:27.210Z,99.99
2019-04-05T10:21:27.237Z,99.99
2019-04-05T10:22:27.192Z,99.99
2019-04-05T10:23:27.178Z,99.99
2019-04-05T10:24:27.170Z,99.99
2019-04-05T10:25:27.163Z,99.99
2019-04-05T10:26:27.155Z,99.99
2019-04-05T10:27:27.146Z,99.99
2019-04-05T10:28:27.167Z,99.99
2019-04-05T10:29:27.128Z,99.99
2019-04-05T10:30:27.121Z,99.99
2019-04-05T10:31:27.114Z,99.99
2019-04-05T10:32:27.104Z,98.18
2019-04-05T10:33:27.097Z,98.56
2019-04-05T10:34:27.087Z,98.47
2019-04-05T10:35:27.075Z,99.04
2019-04-05T10:36:27.079Z,98.94
2019-04-05T10:37:27.071Z,99.8
2019-04-05T10:38:27.054Z,99.99
2019-04-05T10:39:26.799Z,99.99
2019-04-05T10:40:27.045Z,99.99
2019-04-05T10:41:27.030Z,99.99
2019-04-05T10:42:27.019Z,99.99
2019-04-05T10:43:27.012Z,99.99
2019-04-05T10:44:27.003Z,99.99
2019-04-05T10:45:26.994Z,99.99
2019-04-05T10:46:26.987Z,99.99
2019-04-05T10:47:26.978Z,99.99
2019-04-05T10:48:26.973Z,99.99
2019-04-05T10:49:26.965Z,99.99
2019-04-05T10:50:26.951Z,99.99
2019-04-05T10:51:26.945Z,99.99
2019-04-05T10:52:26.935Z,99.99
2019-04-05T10:53:26.942Z,99.99
2019-04-05T10:54:26.931Z,99.99
2019-04-05T10:55:26.912Z,99.99
2019-04-05T10:56:26.901Z,99.99
2019-04-05T10:57:26.894Z,99.99
2019-04-05T10:58:26.643Z,99.99
2019-04-05T10:59:26.881Z,99.99
2019-04-05T11:00:26.628Z,99.99
2019-04-05T11:01:26.865Z,99.99
2019-04-05T11:02:26.855Z,99.99
2019-04-05T11:03:26.611Z,99.99
2019-04-05T11:04:26.834Z,99.99
2019-04-05T11:05:26.823Z,99.99
2019-04-05T11:06:26.823Z,99.99
2019-04-05T11:07:26.814Z,99.99
2019-04-05T11:08:26.867Z,99.99
2019-04-05T11:09:26.561Z,99.99
2019-04-05T11:10:26.534Z,99.99
2019-04-05T11:11:26.775Z,99.99
2019-04-05T11:12:26.772Z,99.99
2019-04-05T11:13:26.770Z,99.99
2019-04-05T11:14:26.749Z,99.99
2019-04-05T11:15:26.739Z,99.99
2019-04-05T11:16:26.731Z,99.99
2019-04-05T11:17:26.724Z,99.99
2019-04-05T11:18:26.728Z,99.99
2019-04-05T11:19:26.706Z,99.99
2019-04-05T11:20:26.715Z,99.99
2019-04-05T11:21:26.690Z,99.99
2019-04-05T11:22:26.432Z,99.99
2019-04-05T11:23:26.435Z,99.99
2019-04-05T11:24:26.659Z,99.99
2019-04-05T11:25:26.655Z,99.99
2019-04-05T11:26:26.643Z,99.99
2019-04-05T11:27:26.635Z,99.99
2019-04-05T11:28:26.631Z,99.99
2019-04-05T11:29:26.618Z,99.99
2019-04-05T11:30:29.383Z,99.13
2019-04-05T11:31:26.602Z,99.99
2019-04-05T11:32:26.597Z,99.61
2019-04-05T11:33:26.591Z,99.32
2019-04-05T11:34:26.580Z,99.99
2019-04-05T11:35:26.572Z,99.99
2019-04-05T11:36:26.564Z,99.99
2019-04-05T11:37:26.324Z,98.61
2019-04-05T11:38:27.069Z,98.42
2019-04-05T11:39:26.535Z,96.51
2019-04-05T11:40:26.654Z,98.52
2019-04-05T11:41:26.519Z,99.18
2019-04-05T11:42:26.542Z,98.23
2019-04-05T11:43:31.071Z,97.47
2019-04-05T11:44:26.500Z,97.85
2019-04-05T11:45:26.489Z,98.42
2019-04-05T11:46:26.481Z,98.42
2019-04-05T11:47:26.230Z,96.42
2019-04-05T11:48:26.225Z,96.32
2019-04-05T11:49:26.457Z,95.94
2019-04-05T11:50:36.697Z,96.42
2019-04-05T11:51:26.442Z,97.94
2019-04-05T11:52:26.435Z,95.7
2019-04-05T11:53:26.426Z,94.56
2019-04-05T11:54:26.421Z,94.79
2019-04-05T11:55:26.413Z,94.03
2019-04-05T11:56:26.399Z,94.74
2019-04-05T11:57:26.398Z,95.7
2019-04-05T11:58:26.391Z,98.08
2019-04-05T11:59:26.401Z,97.61
2019-04-05T12:00:26.371Z,99.99
2019-04-05T12:01:26.369Z,99.99
2019-04-05T12:02:26.373Z,99.99
2019-04-05T12:03:26.356Z,99.99
2019-04-05T12:04:26.336Z,99.99
2019-04-05T12:05:29.465Z,99.99
2019-04-05T12:06:26.322Z,99.99
2019-04-05T12:07:28.786Z,99.99
2019-04-05T12:08:26.307Z,99.99
2019-04-05T12:09:26.297Z,99.99
2019-04-05T12:10:26.301Z,99.99
2019-04-05T12:11:26.286Z,99.99
2019-04-05T12:12:28.136Z,99.99
2019-04-05T12:13:26.266Z,99.99
2019-04-05T12:14:34.436Z,99.99
2019-04-05T12:15:26.249Z,99.99
2019-04-05T12:16:26.244Z,99.99
2019-04-05T12:17:26.231Z,99.99
2019-04-05T12:18:26.222Z,99.99
2019-04-05T12:19:26.210Z,99.99
2019-04-05T12:20:26.206Z,99.99
2019-04-05T12:21:26.194Z,99.99
2019-04-05T12:22:26.184Z,99.99
2019-04-05T12:23:26.179Z,99.99
2019-04-05T12:24:26.170Z,99.99
2019-04-05T12:25:26.158Z,99.99
2019-04-05T12:26:26.150Z,99.99
2019-04-05T12:27:26.141Z,99.99
2019-04-05T12:28:26.142Z,99.99
2019-04-05T12:29:26.122Z,99.99
2019-04-05T12:30:26.115Z,99.99
2019-04-05T12:31:26.127Z,99.99
2019-04-05T12:32:41.001Z,99.99
2019-04-05T12:33:26.087Z,99.99
2019-04-05T12:34:28.445Z,99.99
2019-04-05T12:35:26.071Z,99.99
2019-04-05T12:36:26.066Z,99.99
2019-04-05T12:37:26.051Z,99.99
2019-04-05T12:38:32.375Z,99.99
2019-04-05T12:39:26.038Z,99.99
2019-04-05T12:40:26.025Z,99.99
2019-04-05T12:41:26.017Z,99.99
2019-04-05T12:42:26.039Z,99.99
2019-04-05T12:43:26.000Z,99.99
2019-04-05T12:44:25.996Z,99.99
2019-04-05T12:45:25.983Z,99.99
2019-04-05T12:46:25.976Z,99.99
2019-04-05T12:47:25.964Z,99.99
2019-04-05T12:48:25.954Z,99.99
2019-04-05T12:49:25.953Z,99.99
2019-04-05T12:50:25.938Z,99.99
2019-04-05T12:51:25.939Z,99.99
2019-04-05T12:52:29.934Z,99.99
2019-04-05T12:53:28.860Z,99.99
2019-04-05T12:54:25.902Z,99.99